createdAt,value
2022-08-23T00:02:28.305Z,19.64
2022-08-23T00:05:09.254Z,19.63
2022-08-23T00:07:43.934Z,19.64
2022-08-23T00:10:15.071Z,19.64
2022-08-23T00:12:44.995Z,19.64
2022-08-23T00:15:18.006Z,19.61
2022-08-23T00:17:47.829Z,19.67
2022-08-23T00:20:19.841Z,19.62
2022-08-23T00:22:50.100Z,19.66
2022-08-23T00:25:19.063Z,19.67
2022-08-23T00:27:47.742Z,19.69
2022-08-23T00:30:17.950Z,19.63
2022-08-23T00:32:47.088Z,19.67
2022-08-23T00:35:22.255Z,19.63
2022-08-23T00:38:32.401Z,19.64
2022-08-23T00:40:51.380Z,19.65
2022-08-23T00:43:36.128Z,19.68
2022-08-23T00:46:23.986Z,19.69
2022-08-23T00:48:53.381Z,19.70
2022-08-23T00:51:29.420Z,19.68
2022-08-23T00:54:02.693Z,19.67
2022-08-23T00:56:35.003Z,19.67
2022-08-23T00:59:03.879Z,19.64
2022-08-23T01:01:33.567Z,19.61
2022-08-23T01:04:04.277Z,19.63
2022-08-23T01:06:37.054Z,19.68
2022-08-23T01:09:10.521Z,19.66
2022-08-23T01:11:44.234Z,19.66
2022-08-23T01:14:19.062Z,19.66
2022-08-23T01:16:52.510Z,19.64
2022-08-23T01:19:26.649Z,19.63
2022-08-23T01:22:05.279Z,19.65
2022-08-23T01:24:59.844Z,19.66
2022-08-23T01:27:26.424Z,19.63
2022-08-23T01:29:55.202Z,19.67
2022-08-23T01:32:25.971Z,19.67
2022-08-23T01:34:54.691Z,19.67
2022-08-23T01:37:23.462Z,19.63
2022-08-23T01:39:55.580Z,19.62
2022-08-23T01:42:24.774Z,19.63
2022-08-23T01:44:53.361Z,19.66
2022-08-23T01:47:22.452Z,19.65
2022-08-23T01:49:51.143Z,19.62
2022-08-23T01:52:19.864Z,19.64
2022-08-23T01:54:48.460Z,19.64
2022-08-23T01:57:18.590Z,19.63
2022-08-23T01:59:47.511Z,19.64
2022-08-23T02:02:16.383Z,19.66
2022-08-23T02:04:44.993Z,19.63
2022-08-23T02:07:13.751Z,19.63
2022-08-23T02:09:42.879Z,19.58
2022-08-23T02:12:11.591Z,19.58
2022-08-23T02:14:43.762Z,19.57
2022-08-23T02:17:20.578Z,19.56
2022-08-23T02:19:49.598Z,19.54
2022-08-23T02:22:18.709Z,19.50
2022-08-23T02:24:49.401Z,19.46
2022-08-23T02:27:18.489Z,19.45
2022-08-23T02:29:52.089Z,19.46
2022-08-23T02:32:22.282Z,19.47
2022-08-23T02:35:05.426Z,19.48
2022-08-23T02:37:36.160Z,19.47
2022-08-23T02:40:07.363Z,19.47
2022-08-23T02:42:36.684Z,19.48
2022-08-23T02:45:08.792Z,19.47
2022-08-23T02:47:45.604Z,19.44
2022-08-23T02:50:23.523Z,19.43
2022-08-23T02:52:52.310Z,19.42
2022-08-23T02:55:21.142Z,19.43
2022-08-23T02:57:49.943Z,19.40
2022-08-23T03:00:21.671Z,19.41
2022-08-23T03:02:52.640Z,19.42
2022-08-23T03:05:22.159Z,19.41
2022-08-23T03:07:50.881Z,19.41
2022-08-23T03:10:19.402Z,19.40
2022-08-23T03:12:54.565Z,19.39
2022-08-23T03:15:25.103Z,19.39
2022-08-23T03:17:53.661Z,19.36
2022-08-23T03:20:22.703Z,19.34
2022-08-23T03:22:54.665Z,19.34
2022-08-23T03:25:27.233Z,19.34
2022-08-23T03:28:08.682Z,19.32
2022-08-23T03:30:44.572Z,19.28
2022-08-23T03:33:14.795Z,19.30
2022-08-23T03:35:44.622Z,19.30
2022-08-23T03:38:15.961Z,19.31
2022-08-23T03:40:46.132Z,19.32
2022-08-23T03:43:14.984Z,19.32
2022-08-23T03:45:44.982Z,19.32
2022-08-23T03:48:14.784Z,19.33
2022-08-23T03:50:43.544Z,19.28
2022-08-23T03:53:13.262Z,19.30
2022-08-23T03:55:45.023Z,19.29
2022-08-23T03:58:18.092Z,19.30
2022-08-23T04:00:49.299Z,19.28
2022-08-23T04:03:18.401Z,19.31
2022-08-23T04:06:02.831Z,19.33
2022-08-23T04:08:34.084Z,19.35
2022-08-23T04:11:05.964Z,19.35
2022-08-23T04:13:36.393Z,19.35
2022-08-23T04:16:07.393Z,19.34
2022-08-23T04:18:36.790Z,19.32
2022-08-23T04:21:11.804Z,19.31
2022-08-23T04:23:41.034Z,19.26
2022-08-23T04:26:11.961Z,19.28
2022-08-23T04:28:43.011Z,19.28
2022-08-23T04:31:17.643Z,19.27
2022-08-23T04:33:52.324Z,19.27
2022-08-23T04:36:23.351Z,19.28
2022-08-23T04:38:54.150Z,19.31
2022-08-23T04:41:32.632Z,19.31
2022-08-23T04:44:01.862Z,19.30
2022-08-23T04:46:34.615Z,19.29
2022-08-23T04:49:05.422Z,19.25
2022-08-23T04:51:35.145Z,19.25
2022-08-23T04:54:03.994Z,19.26
2022-08-23T04:56:44.044Z,19.32
2022-08-23T04:59:21.173Z,19.36
2022-08-23T05:01:53.113Z,19.42
2022-08-23T05:04:21.854Z,19.44
2022-08-23T05:06:52.352Z,19.47
2022-08-23T05:09:25.238Z,19.48
2022-08-23T05:11:54.512Z,19.49
2022-08-23T05:14:25.522Z,19.48
2022-08-23T05:16:55.833Z,19.49
2022-08-23T05:19:25.705Z,19.54
2022-08-23T05:21:57.120Z,19.54
2022-08-23T05:24:40.726Z,19.51
2022-08-23T05:27:13.520Z,19.49
2022-08-23T05:29:43.013Z,19.52
2022-08-23T05:32:13.126Z,19.57
2022-08-23T05:34:42.350Z,19.58
2022-08-23T05:37:12.640Z,19.56
2022-08-23T05:39:43.241Z,19.57
2022-08-23T05:42:16.425Z,19.58
2022-08-23T05:44:47.448Z,19.57
2022-08-23T05:47:24.642Z,19.57
2022-08-23T05:50:17.834Z,19.55
2022-08-23T05:52:50.829Z,19.61
2022-08-23T05:55:21.889Z,19.59
2022-08-23T05:58:14.542Z,19.60
2022-08-23T06:00:43.806Z,19.57
2022-08-23T06:03:14.465Z,19.53
2022-08-23T06:05:43.811Z,19.60
2022-08-23T06:08:13.595Z,19.58
2022-08-23T06:10:42.611Z,19.62
2022-08-23T06:13:22.475Z,19.63
2022-08-23T06:15:51.127Z,19.65
2022-08-23T06:18:21.705Z,19.68
2022-08-23T06:21:02.784Z,19.63
2022-08-23T06:23:42.225Z,19.64
2022-08-23T06:26:12.684Z,19.65
2022-08-23T06:28:50.118Z,19.71
2022-08-23T06:31:41.375Z,19.72
2022-08-23T06:34:20.237Z,19.72
2022-08-23T06:37:02.093Z,19.76
2022-08-23T06:39:58.347Z,19.78
2022-08-23T06:42:39.009Z,19.79
2022-08-23T06:45:11.185Z,19.85
2022-08-23T06:47:44.134Z,19.87
2022-08-23T06:50:14.306Z,19.92
2022-08-23T06:52:54.306Z,19.98
2022-08-23T06:55:35.061Z,20.02
2022-08-23T06:58:13.903Z,20.05
2022-08-23T07:01:42.236Z,20.05
2022-08-23T07:04:15.113Z,20.06
2022-08-23T07:06:56.700Z,20.14
2022-08-23T07:09:26.530Z,20.19
2022-08-23T07:11:58.088Z,20.18
2022-08-23T07:14:27.669Z,20.18
2022-08-23T07:16:59.945Z,20.20
2022-08-23T07:19:31.258Z,20.20
2022-08-23T07:22:02.555Z,20.20
2022-08-23T07:24:33.476Z,20.22
2022-08-23T07:27:07.382Z,20.19
2022-08-23T07:29:41.758Z,20.23
2022-08-23T07:32:11.836Z,20.27
2022-08-23T07:34:42.178Z,20.33
2022-08-23T07:37:15.561Z,20.40
2022-08-23T07:39:45.533Z,20.39
2022-08-23T07:42:23.117Z,20.39
2022-08-23T07:44:58.045Z,20.42
2022-08-23T07:47:30.784Z,20.44
2022-08-23T07:50:01.367Z,20.44
2022-08-23T07:52:33.685Z,20.47
2022-08-23T07:55:02.547Z,20.49
2022-08-23T07:57:51.126Z,20.45
2022-08-23T08:00:30.762Z,20.39
2022-08-23T08:03:13.408Z,20.41
2022-08-23T08:06:01.810Z,20.41
2022-08-23T08:08:33.326Z,20.40
2022-08-23T08:11:02.108Z,20.38
2022-08-23T08:13:32.202Z,20.34
2022-08-23T08:16:01.979Z,20.30
2022-08-23T08:18:33.520Z,20.27
2022-08-23T08:21:29.710Z,20.33
2022-08-23T08:24:20.377Z,20.36
2022-08-23T08:26:53.040Z,20.47
2022-08-23T08:29:22.200Z,20.47
2022-08-23T08:31:54.452Z,20.49
2022-08-23T08:34:23.859Z,20.54
2022-08-23T08:36:54.658Z,20.61
2022-08-23T08:39:31.081Z,20.63
2022-08-23T08:42:19.298Z,20.63
2022-08-23T08:44:52.816Z,20.68
2022-08-23T08:47:36.403Z,20.81
2022-08-23T08:50:15.137Z,20.98
2022-08-23T08:52:49.326Z,21.05
2022-08-23T08:55:38.977Z,21.21
2022-08-23T08:58:08.720Z,21.29
2022-08-23T09:00:41.057Z,21.41
2022-08-23T09:03:14.451Z,21.46
2022-08-23T09:05:54.037Z,21.51
2022-08-23T09:08:38.769Z,21.55
2022-08-23T09:11:16.122Z,21.59
2022-08-23T09:14:03.009Z,21.63
2022-08-23T09:16:49.379Z,21.67
2022-08-23T09:19:21.070Z,21.59
2022-08-23T09:21:58.031Z,21.46
2022-08-23T09:24:28.827Z,21.40
2022-08-23T09:27:22.790Z,21.38
2022-08-23T09:29:57.691Z,21.41
2022-08-23T09:32:34.035Z,21.46
2022-08-23T09:35:16.421Z,21.48
2022-08-23T09:38:01.050Z,21.55
2022-08-23T09:40:38.902Z,21.60
2022-08-23T09:43:17.031Z,21.55
2022-08-23T09:45:58.364Z,21.49
2022-08-23T09:48:40.114Z,21.43
2022-08-23T09:51:24.084Z,21.47
2022-08-23T09:54:07.021Z,21.49
2022-08-23T09:56:40.505Z,21.62
2022-08-23T09:59:32.302Z,21.73
2022-08-23T10:02:17.487Z,21.86
2022-08-23T10:04:59.166Z,22.06
2022-08-23T10:07:35.217Z,22.26
2022-08-23T10:10:23.573Z,22.26
2022-08-23T10:12:59.519Z,22.20
2022-08-23T10:15:42.699Z,22.29
2022-08-23T10:18:20.873Z,22.42
2022-08-23T10:20:58.146Z,22.45
2022-08-23T10:23:41.985Z,22.47
2022-08-23T10:26:23.518Z,22.46
2022-08-23T10:29:09.668Z,22.45
2022-08-23T10:31:49.905Z,22.58
2022-08-23T10:34:30.029Z,22.65
2022-08-23T10:37:14.614Z,22.66
2022-08-23T10:39:50.099Z,22.61
2022-08-23T10:42:28.196Z,22.67
2022-08-23T10:45:04.784Z,22.74
2022-08-23T10:47:42.056Z,22.66
2022-08-23T10:50:22.365Z,22.56
2022-08-23T10:52:55.895Z,22.57
2022-08-23T10:55:43.893Z,22.54
2022-08-23T10:58:24.237Z,22.47
2022-08-23T11:00:56.358Z,22.35
2022-08-23T11:03:31.287Z,22.31
2022-08-23T11:06:22.852Z,22.32
2022-08-23T11:09:00.314Z,22.41
2022-08-23T11:11:42.525Z,22.50
2022-08-23T11:14:26.688Z,22.59
2022-08-23T11:17:00.778Z,22.55
2022-08-23T11:19:49.306Z,22.58
2022-08-23T11:22:20.995Z,22.65
2022-08-23T11:24:59.234Z,22.66
2022-08-23T11:27:40.695Z,22.67
2022-08-23T11:30:39.327Z,22.73
2022-08-23T11:33:19.108Z,22.76
2022-08-23T11:35:52.036Z,22.73
2022-08-23T11:38:47.609Z,22.79
2022-08-23T11:41:25.129Z,22.82
2022-08-23T11:44:20.165Z,22.87
2022-08-23T11:47:01.765Z,22.85
2022-08-23T11:49:52.999Z,22.85
2022-08-23T11:52:31.538Z,22.85
2022-08-23T11:55:19.510Z,22.95
2022-08-23T11:57:59.140Z,23.12
2022-08-23T12:00:47.855Z,23.18
2022-08-23T12:03:26.116Z,23.34
2022-08-23T12:06:10.319Z,23.38
2022-08-23T12:08:55.736Z,23.47
2022-08-23T12:11:26.873Z,23.53
2022-08-23T12:14:02.825Z,23.54
2022-08-23T12:16:44.201Z,23.62
2022-08-23T12:19:33.293Z,23.69
2022-08-23T12:22:11.985Z,23.77
2022-08-23T12:24:54.688Z,23.75
2022-08-23T12:27:33.024Z,23.81
2022-08-23T12:30:07.627Z,23.81
2022-08-23T12:32:47.155Z,23.88
2022-08-23T12:35:33.766Z,23.97
2022-08-23T12:38:08.122Z,23.95
2022-08-23T12:40:42.716Z,24.00
2022-08-23T12:43:22.567Z,24.19
2022-08-23T12:45:54.111Z,24.27
2022-08-23T12:48:29.306Z,24.47
2022-08-23T12:51:00.174Z,24.42
2022-08-23T12:53:31.565Z,24.43
2022-08-23T12:56:12.840Z,24.50
2022-08-23T12:58:46.944Z,24.72
2022-08-23T13:01:22.638Z,24.93
2022-08-23T13:03:56.138Z,25.01
2022-08-23T13:06:29.275Z,25.15
2022-08-23T13:09:02.524Z,25.17
2022-08-23T13:11:35.194Z,24.89
2022-08-23T13:14:24.668Z,24.81
2022-08-23T13:16:54.079Z,24.81
2022-08-23T13:19:27.585Z,24.78
2022-08-23T13:22:13.778Z,24.65
2022-08-23T13:24:45.699Z,24.56
2022-08-23T13:27:20.677Z,24.46
2022-08-23T13:29:55.073Z,24.50
2022-08-23T13:32:33.740Z,24.55
2022-08-23T13:35:24.320Z,24.63
2022-08-23T13:37:55.459Z,24.55
2022-08-23T13:40:27.358Z,24.79
2022-08-23T13:43:02.654Z,25.00
2022-08-23T13:45:34.045Z,25.29
2022-08-23T13:48:09.159Z,25.44
2022-08-23T13:50:38.875Z,25.40
2022-08-23T13:53:14.915Z,25.53
2022-08-23T13:55:49.090Z,25.60
2022-08-23T13:58:29.106Z,25.64
2022-08-23T14:00:58.890Z,25.45
2022-08-23T14:03:31.731Z,25.28
2022-08-23T14:06:00.535Z,25.31
2022-08-23T14:08:29.341Z,25.43
2022-08-23T14:10:58.142Z,25.37
2022-08-23T14:13:31.038Z,25.39
2022-08-23T14:21:46.979Z,25.63
2022-08-23T14:24:15.389Z,25.67
2022-08-23T14:26:50.269Z,25.76
2022-08-23T14:29:22.851Z,25.62
2022-08-23T14:31:52.712Z,25.59
2022-08-23T14:34:22.257Z,25.56
2022-08-23T14:39:40.819Z,25.66
2022-08-23T14:42:10.540Z,25.63
2022-08-23T14:44:40.799Z,25.61
2022-08-23T14:47:09.720Z,25.53
2022-08-23T14:49:38.879Z,25.47
2022-08-23T14:52:07.702Z,25.45
2022-08-23T14:54:36.557Z,25.53
2022-08-23T14:57:05.729Z,25.60
2022-08-23T14:59:34.511Z,25.60
2022-08-23T15:02:07.238Z,25.79
2022-08-23T15:04:36.413Z,25.94
2022-08-23T15:07:21.691Z,25.95
2022-08-23T15:09:55.117Z,25.86
2022-08-23T15:15:17.471Z,25.80
2022-08-23T15:17:55.446Z,25.70
2022-08-23T15:20:28.090Z,25.53
2022-08-23T15:22:57.101Z,25.44
2022-08-23T15:25:27.333Z,25.40
2022-08-23T15:27:56.659Z,25.30
2022-08-23T15:30:26.073Z,25.27
2022-08-23T15:33:00.810Z,25.23
2022-08-23T15:35:31.465Z,25.22
2022-08-23T15:38:00.690Z,25.22
2022-08-23T15:40:29.524Z,25.22
2022-08-23T15:42:58.290Z,25.22
2022-08-23T15:45:27.297Z,25.16
2022-08-23T15:47:59.167Z,25.05
2022-08-23T15:50:33.009Z,25.00
2022-08-23T15:53:01.954Z,24.94
2022-08-23T15:55:33.745Z,24.88
2022-08-23T15:58:02.501Z,24.84
2022-08-23T16:00:31.908Z,24.78
2022-08-23T16:03:20.526Z,24.72
2022-08-23T16:05:54.279Z,24.69
2022-08-23T16:08:27.081Z,24.60
2022-08-23T16:10:56.642Z,24.53
2022-08-23T16:13:26.042Z,24.44
2022-08-23T16:15:55.017Z,24.42
2022-08-23T16:18:23.718Z,24.36
2022-08-23T16:20:54.430Z,24.33
2022-08-23T16:23:26.685Z,24.30
2022-08-23T16:26:00.781Z,24.22
2022-08-23T16:28:31.169Z,24.22
2022-08-23T16:30:59.948Z,24.14
2022-08-23T16:33:28.684Z,24.08
2022-08-23T16:35:58.933Z,24.04
2022-08-23T16:38:27.938Z,23.97
2022-08-23T16:40:56.599Z,23.93
2022-08-23T16:43:25.254Z,23.91
2022-08-23T16:45:54.268Z,23.90
2022-08-23T16:48:23.108Z,23.90
2022-08-23T16:50:52.152Z,23.87
2022-08-23T16:53:22.329Z,23.87
2022-08-23T16:55:51.039Z,23.84
2022-08-23T16:58:19.882Z,23.83
2022-08-23T17:00:50.762Z,23.79
2022-08-23T17:03:20.341Z,23.75
2022-08-23T17:05:49.659Z,23.72
2022-08-23T17:08:18.692Z,23.67
2022-08-23T17:10:49.142Z,23.45
2022-08-23T17:13:18.891Z,23.51
2022-08-23T17:15:47.558Z,23.52
2022-08-23T17:18:16.209Z,23.45
2022-08-23T17:20:45.119Z,23.40
2022-08-23T17:23:14.185Z,23.34
2022-08-23T17:25:48.119Z,23.31
2022-08-23T17:28:19.288Z,23.24
2022-08-23T17:30:48.019Z,23.18
2022-08-23T17:33:16.699Z,23.12
2022-08-23T17:35:46.620Z,23.07
2022-08-23T17:38:15.799Z,22.97
2022-08-23T17:40:44.602Z,22.92
2022-08-23T17:43:13.809Z,22.89
2022-08-23T17:45:47.507Z,22.82
2022-08-23T17:48:17.892Z,22.78
2022-08-23T17:50:48.217Z,22.75
2022-08-23T17:53:18.969Z,22.66
2022-08-23T17:55:48.098Z,22.59
2022-08-23T17:58:17.517Z,22.53
2022-08-23T18:00:49.292Z,22.41
2022-08-23T18:03:18.189Z,22.35
2022-08-23T18:05:48.237Z,22.29
2022-08-23T18:08:17.197Z,22.24
2022-08-23T18:10:46.189Z,22.17
2022-08-23T18:13:14.880Z,22.09
2022-08-23T18:15:43.867Z,22.01
2022-08-23T18:18:14.819Z,21.98
2022-08-23T18:20:43.698Z,21.97
2022-08-23T18:23:13.339Z,21.95
2022-08-23T18:25:42.208Z,21.92
2022-08-23T18:28:12.279Z,21.90
2022-08-23T18:30:48.528Z,21.87
2022-08-23T18:33:20.818Z,21.85
2022-08-23T18:35:54.149Z,21.82
2022-08-23T18:38:22.899Z,21.78
2022-08-23T18:40:51.791Z,21.71
2022-08-23T18:43:23.219Z,21.62
2022-08-23T18:45:54.351Z,21.60
2022-08-23T18:48:26.234Z,21.57
2022-08-23T18:50:55.473Z,21.55
2022-08-23T18:53:24.307Z,21.52
2022-08-23T18:55:56.284Z,21.44
2022-08-23T18:58:25.235Z,21.41
2022-08-23T19:00:56.212Z,21.38
2022-08-23T19:03:27.091Z,21.31
2022-08-23T19:05:56.213Z,21.25
2022-08-23T19:08:24.918Z,21.18
2022-08-23T19:10:53.839Z,21.10
2022-08-23T19:13:22.619Z,21.07
2022-08-23T19:15:52.664Z,21.02
2022-08-23T19:18:21.740Z,20.98
2022-08-23T19:20:52.210Z,20.97
2022-08-23T19:23:21.848Z,20.94
2022-08-23T19:25:52.432Z,20.91
2022-08-23T19:28:23.579Z,20.88
2022-08-23T19:30:52.478Z,20.87
2022-08-23T19:33:21.369Z,20.80
2022-08-23T19:35:51.605Z,20.79
2022-08-23T19:38:24.144Z,20.77
2022-08-23T19:40:52.888Z,20.76
2022-08-23T19:43:21.840Z,20.69
2022-08-23T19:45:51.801Z,20.67
2022-08-23T19:48:21.571Z,20.62
2022-08-23T19:50:51.941Z,20.59
2022-08-23T19:53:23.494Z,20.59
2022-08-23T19:55:52.453Z,20.57
2022-08-23T19:58:23.322Z,20.59
2022-08-23T20:00:52.125Z,20.55
2022-08-23T20:03:22.610Z,20.51
2022-08-23T20:05:53.142Z,20.47
2022-08-23T20:08:21.903Z,20.45
2022-08-23T20:10:50.710Z,20.40
2022-08-23T20:13:20.504Z,20.31
2022-08-23T20:15:53.084Z,20.26
2022-08-23T20:18:25.110Z,20.25
2022-08-23T20:20:55.701Z,20.26
2022-08-23T20:23:34.282Z,20.24
2022-08-23T20:26:03.352Z,20.20
2022-08-23T20:28:31.963Z,20.13
2022-08-23T20:31:08.034Z,20.12
2022-08-23T20:33:37.021Z,20.15
2022-08-23T20:36:07.306Z,20.11
2022-08-23T20:38:36.373Z,20.08
2022-08-23T20:41:05.353Z,20.08
2022-08-23T20:43:35.993Z,20.10
2022-08-23T20:46:05.342Z,20.08
2022-08-23T20:48:34.982Z,20.08
2022-08-23T20:51:08.133Z,20.04
2022-08-23T20:53:37.720Z,20.03
2022-08-23T20:56:06.944Z,19.98
2022-08-23T20:58:36.022Z,19.87
2022-08-23T21:01:09.364Z,19.83
2022-08-23T21:03:40.730Z,19.81
2022-08-23T21:06:20.068Z,19.73
2022-08-23T21:08:53.567Z,19.79
2022-08-23T21:11:25.373Z,19.81
2022-08-23T21:13:54.189Z,19.80
2022-08-23T21:16:24.482Z,19.68
2022-08-23T21:18:55.580Z,19.69
2022-08-23T21:21:26.550Z,19.66
2022-08-23T21:23:56.026Z,19.68
2022-08-23T21:26:25.295Z,19.67
2022-08-23T21:28:54.492Z,19.71
2022-08-23T21:31:25.569Z,19.70
2022-08-23T21:33:55.096Z,19.67
2022-08-23T21:36:25.785Z,19.63
2022-08-23T21:38:54.545Z,19.59
2022-08-23T21:41:34.684Z,19.63
2022-08-23T21:44:05.832Z,19.63
2022-08-23T21:46:36.493Z,19.58
2022-08-23T21:49:05.650Z,19.53
2022-08-23T21:51:38.781Z,19.55
2022-08-23T21:54:09.275Z,19.51
2022-08-23T21:56:38.154Z,19.49
2022-08-23T21:59:09.816Z,19.44
2022-08-23T22:01:38.824Z,19.44
2022-08-23T22:04:10.061Z,19.43
2022-08-23T22:06:41.235Z,19.41
2022-08-23T22:09:13.282Z,19.35
2022-08-23T22:11:44.472Z,19.30
2022-08-23T22:14:16.766Z,19.32
2022-08-23T22:16:45.603Z,19.37
2022-08-23T22:19:15.383Z,19.34
2022-08-23T22:21:48.125Z,19.37
2022-08-23T22:24:20.014Z,19.39
2022-08-23T22:26:51.114Z,19.34
2022-08-23T22:29:19.710Z,19.37
2022-08-23T22:31:49.201Z,19.38
2022-08-23T22:34:17.641Z,19.30
2022-08-23T22:36:51.925Z,19.21
2022-08-23T22:39:22.194Z,19.20
2022-08-23T22:41:51.076Z,19.12
2022-08-23T22:44:20.117Z,19.11
2022-08-23T22:46:49.088Z,19.09
2022-08-23T22:49:20.877Z,19.07
2022-08-23T22:51:54.993Z,19.05
2022-08-23T22:54:24.873Z,19.08
2022-08-23T22:56:55.379Z,19.12
2022-08-23T22:59:27.624Z,19.08
2022-08-23T23:02:03.377Z,19.01
2022-08-23T23:04:33.913Z,19.02
2022-08-23T23:07:04.052Z,19.04
2022-08-23T23:09:32.807Z,18.99
2022-08-23T23:12:01.430Z,19.00
2022-08-23T23:14:30.749Z,18.93
2022-08-23T23:16:59.509Z,18.90
2022-08-23T23:19:38.419Z,18.87
2022-08-23T23:22:10.547Z,18.84
2022-08-23T23:24:41.310Z,18.84
2022-08-23T23:27:10.268Z,18.85
2022-08-23T23:29:38.957Z,18.85
2022-08-23T23:32:07.993Z,18.87
2022-08-23T23:34:38.304Z,18.87
2022-08-23T23:37:08.429Z,18.88
2022-08-23T23:39:37.208Z,18.85
2022-08-23T23:42:05.879Z,18.85
2022-08-23T23:44:34.756Z,18.87
2022-08-23T23:47:03.458Z,18.88
2022-08-23T23:49:33.479Z,18.86
2022-08-23T23:52:08.741Z,18.88
2022-08-23T23:54:38.770Z,18.88
2022-08-23T23:57:08.038Z,18.83
2022-08-23T23:59:37.254Z,18.86
